Time;durP1;ratioP1;P1;durP2;ratioP2;P2;SDS_P1;SDS_P2;PMS_P1;PMS_P2;Temp;Humidity;BMP_temperature;BMP_pressure;BME280_temperature;BME280_humidity;BME280_pressure;Samples;Min_cycle;Max_cycle;Signal;HPM_P1;HPM_P2
2023/11/12 00:00:03;;;;;;;;;84.33;63.67;;;;;-143.90;100.00;74878.66;4982857;28;102176;-75
2023/11/12 00:02:30;;;;;;;;;86.00;66.33;;;;;-143.90;100.00;74882.78;4977433;28;105598;-74
2023/11/12 00:04:57;;;;;;;;;91.67;66.33;;;;;-143.90;100.00;74882.78;4980239;28;103430;-73
2023/11/12 00:07:23;;;;;;;;;95.25;70.75;;;;;-143.90;100.00;74903.47;4977338;28;102550;-74
2023/11/12 00:09:50;;;;;;;;;69.00;55.00;;;;;-143.90;100.00;74893.13;4983306;28;102234;-74
2023/11/12 00:12:19;;;;;;;;;70.00;54.00;;;;;-143.90;100.00;74880.72;4980213;28;105475;-76
2023/11/12 00:14:46;;;;;;;;;78.67;60.67;;;;;-143.90;100.00;74893.13;4967894;28;102532;-75
2023/11/12 00:17:13;;;;;;;;;82.67;62.67;;;;;-143.90;100.00;74907.59;4967870;28;102739;-76
2023/11/12 00:19:40;;;;;;;;;72.00;55.33;;;;;-143.90;100.00;74905.53;4986935;28;102732;-75
2023/11/12 00:22:08;;;;;;;;;79.33;57.00;;;;;-143.90;100.00;74903.47;4978214;28;104373;-76
2023/11/12 00:24:34;;;;;;;;;74.00;54.67;;;;;-143.90;100.00;74903.47;4976153;28;102289;-75
2023/11/12 00:27:01;;;;;;;;;69.33;52.00;;;;;-143.90;100.00;74901.41;4981303;28;102072;-75
2023/11/12 00:29:28;;;;;;;;;65.00;50.33;;;;;-143.90;100.00;74901.41;4978029;28;102750;-74
2023/11/12 00:31:54;;;;;;;;;59.00;48.33;;;;;-143.90;100.00;74907.59;4981052;28;105281;-74
2023/11/12 00:34:21;;;;;;;;;69.33;53.33;;;;;-143.90;100.00;74920.00;4977234;28;102242;-74
2023/11/12 00:36:48;;;;;;;;;85.33;64.33;;;;;-143.90;100.00;74946.88;4984626;28;102263;-75
2023/11/12 00:39:15;;;;;;;;;81.33;63.00;;;;;-143.90;100.00;74942.75;4980977;28;102262;-74
2023/11/12 00:41:41;;;;;;;;;82.67;62.33;;;;;-143.90;100.00;74948.94;4978015;28;103317;-74
2023/11/12 00:44:10;;;;;;;;;74.67;57.33;;;;;-143.90;100.00;74938.59;4965870;28;102669;-75
2023/11/12 00:46:40;;;;;;;;;87.00;62.33;;;;;-143.90;100.00;74973.75;4976428;28;102197;-74
2023/11/12 00:49:07;;;;;;;;;77.00;56.33;;;;;-143.90;100.00;74965.50;4989111;28;102171;-74
2023/11/12 00:51:35;;;;;;;;;81.67;60.33;;;;;-143.90;100.00;74982.03;4978151;28;104227;-74
2023/11/12 00:54:02;;;;;;;;;77.67;59.00;;;;;-143.90;100.00;74969.63;4984184;28;102222;-73
2023/11/12 00:56:29;;;;;;;;;72.00;55.00;;;;;-143.90;100.00;74967.56;4979350;28;102203;-74
2023/11/12 00:58:55;;;;;;;;;77.00;57.33;;;;;-143.90;100.00;74977.88;4975909;28;102274;-73
2023/11/12 01:01:22;;;;;;;;;71.00;53.00;;;;;-143.90;100.00;74969.63;4984179;28;104485;-74
2023/11/12 01:03:49;;;;;;;;;79.33;60.33;;;;;-143.90;100.00;74988.22;4953286;28;102617;-75
2023/11/12 01:06:15;;;;;;;;;71.00;56.33;;;;;-143.90;100.00;74986.16;4983266;28;102164;-74
2023/11/12 01:08:43;;;;;;;;;75.67;57.00;;;;;-143.90;100.00;74998.56;4981830;28;102274;-75
2023/11/12 01:11:09;;;;;;;;;67.33;52.00;;;;;-143.90;100.00;74977.88;4989011;28;103040;-75
2023/11/12 01:13:36;;;;;;;;;68.33;53.33;;;;;-143.90;100.00;74988.22;4981824;28;102627;-76
2023/11/12 01:16:03;;;;;;;;;62.67;48.67;;;;;-143.90;100.00;74986.16;4989514;28;102346;-74
2023/11/12 01:18:31;;;;;;;;;69.67;54.00;;;;;-143.90;100.00;75002.69;4990118;28;102261;-75
2023/11/12 01:20:58;;;;;;;;;62.67;49.67;;;;;-143.90;100.00;75004.75;4981928;28;103996;-75
2023/11/12 01:23:25;;;;;;;;;58.00;44.00;;;;;-143.90;100.00;74986.16;4992033;28;103160;-74
2023/11/12 01:25:52;;;;;;;;;52.25;39.75;;;;;-143.90;100.00;74977.88;4987884;28;102110;-75
2023/11/12 01:28:18;;;;;;;;;59.25;40.50;;;;;-143.90;100.00;74975.81;4994770;28;103711;-74
2023/11/12 01:30:45;;;;;;;;;48.25;36.25;;;;;-143.90;100.00;74969.63;4966914;28;104020;-74
2023/11/12 01:33:12;;;;;;;;;59.00;46.33;;;;;-143.90;100.00;74990.28;4965660;28;103112;-74
2023/11/12 01:35:38;;;;;;;;;56.00;42.67;;;;;-143.90;100.00;74986.16;4987417;28;102288;-74
2023/11/12 01:38:05;;;;;;;;;58.00;45.33;;;;;-143.90;100.00;74990.28;4988488;28;102623;-73
2023/11/12 01:40:37;;;;;;;;;55.75;40.25;;;;;-143.90;100.00;74998.56;4990583;28;104277;-74
2023/11/12 01:43:04;;;;;;;;;56.00;41.67;;;;;-143.90;100.00;74998.56;4961702;28;102244;-74
2023/11/12 01:45:30;;;;;;;;;59.67;45.00;;;;;-143.90;100.00;75006.84;4989790;28;102313;-74
2023/11/12 01:47:57;;;;;;;;;53.33;42.33;;;;;-143.90;100.00;74998.56;4987024;28;103082;-73
2023/11/12 01:50:24;;;;;;;;;55.00;45.33;;;;;-143.90;100.00;75000.63;4973874;28;104183;-74
2023/11/12 01:52:52;;;;;;;;;51.50;41.75;;;;;-143.90;100.00;75000.63;4981488;28;102701;-73
2023/11/12 01:55:22;;;;;;;;;55.00;42.00;;;;;-143.90;100.00;74992.38;4991572;28;102232;-75
2023/11/12 01:57:50;;;;;;;;;57.00;45.67;;;;;-143.90;100.00;75010.97;4984218;28;102837;-75
2023/11/12 02:00:19;;;;;;;;;49.50;39.75;;;;;-143.90;100.00;75004.75;4979866;28;104366;-74
2023/11/12 02:02:46;;;;;;;;;55.00;43.50;;;;;-143.90;100.00;75008.91;4979402;28;102244;-75
2023/11/12 02:05:12;;;;;;;;;56.00;43.75;;;;;-143.90;100.00;75006.84;4970852;28;102207;-74
2023/11/12 02:07:42;;;;;;;;;42.00;33.00;;;;;-143.90;100.00;74986.16;4972796;28;102037;-74
2023/11/12 02:10:13;;;;;;;;;53.50;41.00;;;;;-143.90;100.00;74990.28;4973371;28;105132;-74
2023/11/12 02:12:43;;;;;;;;;49.75;39.25;;;;;-143.90;100.00;74992.38;4972074;28;102127;-74
2023/11/12 02:15:15;;;;;;;;;58.33;43.00;;;;;-143.90;100.00;75002.69;4981016;28;102764;-75
2023/11/12 02:17:45;;;;;;;;;52.33;41.00;;;;;-143.90;100.00;75010.97;4979658;28;102443;-73
2023/11/12 02:20:16;;;;;;;;;50.50;38.75;;;;;-143.90;100.00;74998.56;4972490;28;104124;-74
2023/11/12 02:22:43;;;;;;;;;55.50;43.25;;;;;-143.90;100.00;75002.69;4979747;28;102085;-75
2023/11/12 02:25:13;;;;;;;;;50.75;40.00;;;;;-143.90;100.00;75021.31;4962974;28;102064;-75
2023/11/12 02:27:40;;;;;;;;;55.00;40.25;;;;;-143.90;100.00;75029.56;4979474;28;102837;-76
2023/11/12 02:30:08;;;;;;;;;42.25;36.25;;;;;-143.90;100.00;75035.78;4991492;28;104323;-75
2023/11/12 02:32:37;;;;;;;;;42.25;35.75;;;;;-143.90;100.00;75029.56;4963843;28;102015;-75
2023/11/12 02:35:07;;;;;;;;;39.50;32.75;;;;;-143.90;100.00;75035.78;4976889;28;101993;-73
2023/11/12 02:37:35;;;;;;;;;47.50;36.00;;;;;-143.90;100.00;75037.84;4991362;28;102071;-73
2023/11/12 02:40:03;;;;;;;;;39.00;33.00;;;;;-143.90;100.00;75025.44;4980346;28;103725;-75
2023/11/12 02:42:29;;;;;;;;;45.25;33.25;;;;;-143.90;100.00;75023.38;4958908;28;102327;-74
2023/11/12 02:44:59;;;;;;;;;40.25;31.50;;;;;-143.90;100.00;75023.38;4949761;28;102185;-74
2023/11/12 02:47:27;;;;;;;;;41.00;31.00;;;;;-143.90;100.00;75021.31;4985824;28;102369;-74
2023/11/12 02:50:12;;;;;;;;;48.75;32.75;;;;;-143.90;100.00;75017.16;4977224;28;103179;-74
2023/11/12 02:52:39;;;;;;;;;31.75;25.50;;;;;-143.90;100.00;75008.91;4977790;28;102386;-74
2023/11/12 02:55:06;;;;;;;;;28.50;24.75;;;;;-143.90;100.00;75004.75;4972805;28;104167;-75
2023/11/12 02:57:32;;;;;;;;;27.00;22.75;;;;;-143.90;100.00;74998.56;4984141;28;102384;-75
2023/11/12 02:59:59;;;;;;;;;39.25;33.75;;;;;-143.90;100.00;75021.31;4969882;28;104038;-75
2023/11/12 03:02:26;;;;;;;;;49.75;39.25;;;;;-143.90;100.00;75019.22;4978546;28;101966;-74
2023/11/12 03:04:52;;;;;;;;;49.00;37.00;;;;;-143.90;100.00;75029.56;4977106;28;101953;-75
2023/11/12 03:07:19;;;;;;;;;51.75;35.50;;;;;-143.90;100.00;75044.03;4986279;28;101972;-75
2023/11/12 03:09:47;;;;;;;;;34.00;30.75;;;;;-143.90;100.00;75039.91;4982309;28;104154;-74
2023/11/12 03:12:15;;;;;;;;;31.00;24.00;;;;;-143.90;100.00;75044.03;4979018;28;102154;-74
2023/11/12 03:14:45;;;;;;;;;39.75;35.50;;;;;-143.90;100.00;75052.31;4981475;28;102337;-74
2023/11/12 03:17:12;;;;;;;;;39.25;30.50;;;;;-143.90;100.00;75072.97;4982926;28;102243;-74
2023/11/12 03:19:39;;;;;;;;;37.50;30.25;;;;;-143.90;100.00;75081.25;4974805;28;104020;-76
2023/11/12 03:22:08;;;;;;;;;33.75;27.75;;;;;-143.90;100.00;75083.31;4980858;28;102203;-75
2023/11/12 03:24:36;;;;;;;;;29.75;24.75;;;;;-143.90;100.00;75079.19;4984203;28;102157;-75
2023/11/12 03:27:03;;;;;;;;;28.00;24.75;;;;;-143.90;100.00;75081.25;4982101;28;102036;-76
2023/11/12 03:29:30;;;;;;;;;32.00;24.00;;;;;-143.90;100.00;75075.06;4980070;28;104291;-76
2023/11/12 03:31:58;;;;;;;;;18.75;18.25;;;;;-143.90;100.00;75077.13;4987293;28;102038;-75
2023/11/12 03:34:25;;;;;;;;;34.25;25.25;;;;;-143.90;100.00;75075.06;4976986;28;102090;-75
2023/11/12 03:36:51;;;;;;;;;32.25;26.50;;;;;-143.90;100.00;75083.31;4983172;28;102077;-74
2023/11/12 03:39:18;;;;;;;;;28.25;20.00;;;;;-143.90;100.00;75077.13;4967826;28;104511;-74
2023/11/12 03:41:45;;;;;;;;;26.25;21.00;;;;;-143.90;100.00;75070.91;4979919;28;102370;-74
2023/11/12 03:44:12;;;;;;;;;25.00;23.25;;;;;-143.90;100.00;75072.97;4979073;28;102322;-75
2023/11/12 03:46:38;;;;;;;;;33.50;27.00;;;;;-143.90;100.00;75087.47;4980569;28;102871;-73
2023/11/12 03:49:05;;;;;;;;;27.25;22.00;;;;;-143.90;100.00;75075.06;4975890;28;104385;-76
2023/11/12 03:51:32;;;;;;;;;23.75;21.25;;;;;-143.90;100.00;75072.97;4981742;28;102201;-74
2023/11/12 03:54:02;;;;;;;;;42.50;27.75;;;;;-143.90;100.00;75087.47;4968179;28;102337;-73
2023/11/12 03:56:30;;;;;;;;;27.25;23.25;;;;;-143.90;100.00;75085.38;4976830;28;103001;-74
2023/11/12 03:58:57;;;;;;;;;20.50;17.50;;;;;-143.90;100.00;75093.66;4975037;28;103238;-74
2023/11/12 04:01:24;;;;;;;;;35.00;26.75;;;;;-143.90;100.00;75093.66;4978652;28;101986;-76
2023/11/12 04:03:51;;;;;;;;;19.75;17.00;;;;;-143.90;100.00;75087.47;4975265;28;102207;-75
2023/11/12 04:06:19;;;;;;;;;27.00;21.75;;;;;-143.90;100.00;75093.66;4987545;28;102424;-75
2023/11/12 04:08:46;;;;;;;;;21.00;18.25;;;;;-143.90;100.00;75087.47;4974761;28;105592;-75
2023/11/12 04:11:13;;;;;;;;;23.25;20.25;;;;;-143.90;100.00;75099.88;4977018;28;102994;-75
2023/11/12 04:13:40;;;;;;;;;26.50;20.50;;;;;-143.90;100.00;75099.88;4985916;28;102030;-76
2023/11/12 04:16:08;;;;;;;;;24.50;20.50;;;;;-143.90;100.00;75110.19;4984557;28;102342;-75
2023/11/12 04:18:36;;;;;;;;;16.50;13.25;;;;;-143.90;100.00;75095.72;4974938;28;104164;-74
2023/11/12 04:21:06;;;;;;;;;20.00;18.00;;;;;-143.90;100.00;75093.66;4974580;28;102291;-75
2023/11/12 04:23:33;;;;;;;;;15.50;14.25;;;;;-143.90;100.00;75093.66;4975820;28;102199;-75
2023/11/12 04:26:00;;;;;;;;;20.50;16.00;;;;;-143.90;100.00;75089.53;4976102;28;101905;-74
2023/11/12 04:28:28;;;;;;;;;16.50;14.50;;;;;-143.90;100.00;75097.78;4978630;28;103983;-74
2023/11/12 04:30:56;;;;;;;;;18.00;15.75;;;;;-143.90;100.00;75097.78;4980202;28;102022;-75
2023/11/12 04:33:23;;;;;;;;;20.25;16.00;;;;;-143.90;100.00;75101.94;4978320;28;102919;-75
2023/11/12 04:35:49;;;;;;;;;15.00;14.75;;;;;-143.90;100.00;75099.88;4963178;28;102608;-75
2023/11/12 04:38:16;;;;;;;;;15.00;11.50;;;;;-143.90;100.00;75097.78;4983311;28;104083;-75
2023/11/12 04:40:45;;;;;;;;;16.25;14.50;;;;;-143.90;100.00;75106.06;4979947;28;102749;-76
2023/11/12 04:43:14;;;;;;;;;23.00;18.50;;;;;-143.90;100.00;75118.47;4978981;28;102500;-75
2023/11/12 04:45:41;;;;;;;;;17.75;15.50;;;;;-143.90;100.00;75116.41;4977498;28;102805;-74
2023/11/12 04:48:08;;;;;;;;;18.50;15.00;;;;;-143.90;100.00;75108.13;4984130;28;104088;-75
2023/11/12 04:50:38;;;;;;;;;15.00;14.75;;;;;-143.90;100.00;75114.34;4977077;28;102144;-74
2023/11/12 04:53:06;;;;;;;;;25.00;22.75;;;;;-143.90;100.00;75120.53;4987266;28;101993;-74
2023/11/12 04:55:34;;;;;;;;;34.25;27.00;;;;;-143.90;100.00;75145.34;4976616;28;102609;-75
2023/11/12 04:58:04;;;;;;;;;20.75;18.25;;;;;-143.90;100.00;75132.94;4976748;28;103626;-75
2023/11/12 05:00:31;;;;;;;;;16.00;15.25;;;;;-143.90;100.00;75122.59;4974684;28;102199;-75
2023/11/12 05:02:58;;;;;;;;;14.50;13.25;;;;;-143.90;100.00;75114.34;4962171;28;102119;-75
2023/11/12 05:05:25;;;;;;;;;19.00;18.50;;;;;-143.90;100.00;75130.88;4972397;28;102071;-75
2023/11/12 05:07:51;;;;;;;;;16.25;15.50;;;;;-143.90;100.00;75132.94;4981546;28;104119;-75
2023/11/12 05:10:18;;;;;;;;;25.50;16.75;;;;;-143.90;100.00;75137.06;4973606;28;102175;-75
2023/11/12 05:12:45;;;;;;;;;21.50;19.50;;;;;-143.90;100.00;75143.28;4982233;28;102362;-75
2023/11/12 05:15:12;;;;;;;;;23.75;22.25;;;;;-143.90;100.00;75157.75;4978812;28;102339;-75
2023/11/12 05:17:39;;;;;;;;;21.75;17.75;;;;;-143.90;100.00;75151.53;4956874;28;104254;-75
2023/11/12 05:20:06;;;;;;;;;23.75;17.00;;;;;-143.90;100.00;75141.22;4972657;28;102292;-75
2023/11/12 05:22:32;;;;;;;;;20.25;18.00;;;;;-143.90;100.00;75157.75;4979593;28;101908;-75
2023/11/12 05:24:59;;;;;;;;;25.75;20.00;;;;;-143.90;100.00;75149.47;4975009;28;102562;-75
2023/11/12 05:27:26;;;;;;;;;19.75;17.50;;;;;-143.90;100.00;75168.09;4959590;28;103693;-76
2023/11/12 05:29:53;;;;;;;;;29.00;21.50;;;;;-143.90;100.00;75172.22;4972176;28;102970;-75
2023/11/12 05:32:20;;;;;;;;;21.50;17.50;;;;;-143.90;100.00;75174.28;4981176;28;102693;-75
2023/11/12 05:34:46;;;;;;;;;25.00;21.50;;;;;-143.90;100.00;75174.28;4980034;28;101888;-75
2023/11/12 05:37:13;;;;;;;;;16.25;14.50;;;;;-143.90;100.00;75172.22;4983436;28;103374;-76
2023/11/12 05:39:40;;;;;;;;;20.75;15.75;;;;;-143.90;100.00;75161.88;4979655;28;102506;-75
2023/11/12 05:42:07;;;;;;;;;20.00;17.00;;;;;-143.90;100.00;75168.09;4972479;28;102460;-75
2023/11/12 05:44:34;;;;;;;;;26.50;21.00;;;;;-143.90;100.00;75180.50;4983610;28;102071;-75
2023/11/12 05:47:01;;;;;;;;;24.50;23.50;;;;;-143.90;100.00;75188.75;4983511;28;104332;-75
2023/11/12 05:49:28;;;;;;;;;32.50;27.00;;;;;-143.90;100.00;75209.44;4956965;28;102231;-75
2023/11/12 05:51:55;;;;;;;;;27.50;21.00;;;;;-143.90;100.00;75197.03;4973774;28;102188;-75
2023/11/12 05:54:22;;;;;;;;;23.75;20.50;;;;;-143.90;100.00;75192.91;4970829;28;102144;-76
2023/11/12 05:56:49;;;;;;;;;25.25;21.00;;;;;-143.90;100.00;75194.97;4975387;28;103685;-75
2023/11/12 05:59:15;;;;;;;;;20.00;18.25;;;;;-143.90;100.00;75201.16;4976266;28;102119;-75
2023/11/12 06:01:42;;;;;;;;;33.50;25.50;;;;;-143.90;100.00;75207.38;4974202;28;102144;-75
2023/11/12 06:04:08;;;;;;;;;25.50;21.75;;;;;-143.90;100.00;75203.22;4980014;28;102193;-75
2023/11/12 06:06:35;;;;;;;;;20.75;17.25;;;;;-143.90;100.00;75201.16;4972277;28;104012;-75
2023/11/12 06:09:02;;;;;;;;;22.50;17.50;;;;;-143.90;100.00;75201.16;4979271;28;102046;-75
2023/11/12 06:11:28;;;;;;;;;27.25;23.75;;;;;-143.90;100.00;75211.50;4975243;28;101844;-75
2023/11/12 06:13:55;;;;;;;;;31.75;22.50;;;;;-143.90;100.00;75219.78;4981615;28;101973;-76
2023/11/12 06:16:22;;;;;;;;;24.75;20.25;;;;;-143.90;100.00;75205.28;4974906;28;104043;-75
2023/11/12 06:18:48;;;;;;;;;18.00;16.00;;;;;-143.90;100.00;75203.22;4986209;28;102008;-75
2023/11/12 06:21:15;;;;;;;;;27.50;19.25;;;;;-143.90;100.00;75209.44;4977727;28;102046;-75
2023/11/12 06:23:43;;;;;;;;;22.75;20.00;;;;;-143.90;100.00;75209.44;4983524;28;102155;-76
2023/11/12 06:26:11;;;;;;;;;22.75;20.00;;;;;-143.90;100.00;75207.38;4983397;28;104464;-75
2023/11/12 06:28:38;;;;;;;;;24.50;22.25;;;;;-143.90;100.00;75209.44;4979455;28;102244;-75
2023/11/12 06:31:05;;;;;;;;;23.00;18.25;;;;;-143.90;100.00;75209.44;4982590;28;102175;-75
2023/11/12 06:33:31;;;;;;;;;32.00;25.75;;;;;-143.90;100.00;75219.78;4963347;28;102032;-76
2023/11/12 06:35:58;;;;;;;;;32.00;24.75;;;;;-143.90;100.00;75221.84;4981666;28;104032;-76
2023/11/12 06:38:25;;;;;;;;;22.25;18.25;;;;;-143.90;100.00;75205.28;4965184;28;102314;-76
2023/11/12 06:40:52;;;;;;;;;26.75;20.75;;;;;-143.90;100.00;75203.22;4977128;28;102410;-75
2023/11/12 06:43:18;;;;;;;;;28.75;22.50;;;;;-143.90;100.00;75205.28;4983871;28;102065;-75
2023/11/12 06:45:45;;;;;;;;;32.25;26.50;;;;;-143.90;100.00;75215.63;4981663;28;104069;-76
2023/11/12 06:48:12;;;;;;;;;26.25;15.25;;;;;-143.90;100.00;75201.16;4979704;28;102200;-74
2023/11/12 06:50:39;;;;;;;;;26.50;22.75;;;;;-143.90;100.00;75205.28;4988678;28;102195;-74
2023/11/12 06:53:05;;;;;;;;;24.00;18.00;;;;;-143.90;100.00;75192.91;4982159;28;102428;-75
2023/11/12 06:55:33;;;;;;;;;36.75;27.75;;;;;-143.90;100.00;75213.56;4964233;28;104518;-74
2023/11/12 06:58:00;;;;;;;;;32.25;27.75;;;;;-143.90;100.00;75207.38;4986244;28;102063;-75
2023/11/12 07:00:27;;;;;;;;;44.75;33.25;;;;;-143.90;100.00;75225.97;4978737;28;102068;-75
2023/11/12 07:02:54;;;;;;;;;31.25;24.50;;;;;-143.90;100.00;75217.69;4978294;28;102261;-74
2023/11/12 07:05:21;;;;;;;;;39.50;34.75;;;;;-143.90;100.00;75230.09;4977590;28;104638;-74
2023/11/12 07:07:48;;;;;;;;;30.00;25.00;;;;;-143.90;100.00;75217.69;4980237;28;102250;-75
2023/11/12 07:10:14;;;;;;;;;30.75;23.75;;;;;-143.90;100.00;75205.28;4963850;28;102153;-78
2023/11/12 07:12:42;;;;;;;;;21.25;17.50;;;;;-143.90;100.00;75203.22;4983987;28;101904;-76
2023/11/12 07:15:09;;;;;;;;;37.25;30.75;;;;;-143.90;100.00;75217.69;4980708;28;104526;-75
2023/11/12 07:17:36;;;;;;;;;41.75;31.00;;;;;-143.90;100.00;75215.63;4983849;28;102116;-75
2023/11/12 07:20:05;;;;;;;;;42.00;32.75;;;;;-143.90;100.00;75230.09;4978966;28;102041;-75
2023/11/12 07:22:35;;;;;;;;;39.00;27.00;;;;;-143.90;100.00;75225.97;4963283;28;102487;-76
2023/11/12 07:25:03;;;;;;;;;35.00;33.50;;;;;-143.90;100.00;75225.97;4976630;28;104036;-76
2023/11/12 07:27:33;;;;;;;;;36.00;31.25;;;;;-143.90;100.00;75232.19;4979583;28;102254;-75
2023/11/12 07:29:59;;;;;;;;;31.25;25.00;;;;;-143.90;100.00;75219.78;4977766;28;101964;-75
2023/11/12 07:32:26;;;;;;;;;21.00;18.50;;;;;-143.90;100.00;75211.50;4980104;28;102528;-75
2023/11/12 07:34:53;;;;;;;;;25.00;21.25;;;;;-143.90;100.00;75209.44;4977529;28;104054;-76
2023/11/12 07:37:20;;;;;;;;;22.75;17.75;;;;;-143.90;100.00;75194.97;4984945;28;102365;-75
2023/11/12 07:39:46;;;;;;;;;25.00;18.00;;;;;-143.90;100.00;75192.91;4983205;28;103142;-75
2023/11/12 07:42:14;;;;;;;;;16.50;13.25;;;;;-143.90;100.00;75182.56;4970303;28;102782;-76
2023/11/12 07:44:40;;;;;;;;;27.00;22.00;;;;;-143.90;100.00;75188.75;4976785;28;104914;-76
2023/11/12 07:47:07;;;;;;;;;21.00;17.25;;;;;-143.90;100.00;75184.63;4977674;28;102226;-76
2023/11/12 07:49:34;;;;;;;;;35.25;24.75;;;;;-143.90;100.00;75192.91;4974346;28;102378;-75
2023/11/12 07:52:00;;;;;;;;;20.00;16.25;;;;;-143.90;100.00;75176.34;4980510;28;102336;-76
2023/11/12 07:54:27;;;;;;;;;30.00;24.25;;;;;-143.90;100.00;75188.75;4972932;28;104211;-76
2023/11/12 07:56:54;;;;;;;;;21.25;16.75;;;;;-143.90;100.00;75178.41;4978610;28;102762;-76
2023/11/12 07:59:20;;;;;;;;;24.00;22.25;;;;;-143.90;100.00;75176.34;4976013;28;101986;-76
2023/11/12 08:01:50;;;;;;;;;31.75;23.75;;;;;-143.90;100.00;75176.34;4976124;28;102316;-76
2023/11/12 08:04:17;;;;;;;;;20.25;18.50;;;;;-143.90;100.00;75161.88;4981631;28;104134;-75
2023/11/12 08:06:49;;;;;;;;;20.75;18.00;;;;;-143.90;100.00;75151.53;4963522;28;102185;-76
2023/11/12 08:09:16;;;;;;;;;16.00;14.00;;;;;-143.90;100.00;75147.41;4974198;28;102333;-75
2023/11/12 08:15:23;;;;;;;;;20.50;16.00;;;;;-143.90;100.00;75128.81;4955574;28;105811;-75
2023/11/12 08:17:49;;;;;;;;;10.00;8.00;;;;;-143.90;100.00;75124.66;4979736;28;101921;-76
2023/11/12 08:20:16;;;;;;;;;14.50;12.00;;;;;-143.90;100.00;75137.06;4982971;28;102246;-75
2023/11/12 08:22:43;;;;;;;;;13.25;12.25;;;;;-143.90;100.00;75139.16;4986983;28;102896;-76
2023/11/12 08:25:10;;;;;;;;;16.50;12.25;;;;;-143.90;100.00;75151.53;4983632;28;104097;-77
2023/11/12 08:27:38;;;;;;;;;17.00;12.75;;;;;-143.90;100.00;75168.09;4963626;28;101853;-76
2023/11/12 08:30:05;;;;;;;;;18.75;16.25;;;;;-143.90;100.00;75174.28;4978809;28;102114;-76
2023/11/12 08:32:34;;;;;;;;;17.50;15.25;;;;;-143.90;100.00;75184.63;4981148;28;102232;-77
2023/11/12 08:35:01;;;;;;;;;22.00;15.25;;;;;-143.90;100.00;75192.91;4966091;28;104224;-76
2023/11/12 08:37:28;;;;;;;;;12.00;11.75;;;;;-143.90;100.00;75184.63;4979961;28;103661;-76
2023/11/12 08:39:55;;;;;;;;;27.25;23.00;;;;;-143.90;100.00;75209.44;4971555;28;102241;-76
2023/11/12 08:42:23;;;;;;;;;32.00;26.75;;;;;-143.90;100.00;75215.63;4979486;28;102537;-76
2023/11/12 08:44:50;;;;;;;;;23.50;16.75;;;;;-143.90;100.00;75188.75;4970941;28;104098;-76
2023/11/12 08:47:17;;;;;;;;;19.00;14.00;;;;;-143.90;100.00;75190.81;4981347;28;102383;-75
2023/11/12 08:49:43;;;;;;;;;14.00;13.75;;;;;-143.90;100.00;75194.97;4981370;28;103748;-76
2023/11/12 08:52:11;;;;;;;;;17.00;14.25;;;;;-143.90;100.00;75203.22;4980506;28;102182;-75
2023/11/12 08:54:38;;;;;;;;;16.25;14.00;;;;;-143.90;100.00;75205.28;4976221;28;104234;-76
2023/11/12 08:57:05;;;;;;;;;22.50;17.25;;;;;-143.90;100.00;75209.44;4992591;28;101861;-76
2023/11/12 08:59:33;;;;;;;;;22.25;19.00;;;;;-143.90;100.00;75203.22;4991872;28;102208;-76
2023/11/12 09:02:00;;;;;;;;;31.25;26.25;;;;;-143.90;100.00;75219.78;4991779;28;101925;-74
2023/11/12 09:04:26;;;;;;;;;22.25;20.00;;;;;-143.90;100.00;75199.09;4987123;28;103378;-76
2023/11/12 09:06:53;;;;;;;;;26.25;23.00;;;;;-143.90;100.00;75236.31;4993554;28;101882;-75
2023/11/12 09:09:20;;;;;;;;;26.75;20.50;;;;;-143.90;100.00;75219.78;4993921;28;101859;-76
2023/11/12 09:11:47;;;;;;;;;27.25;21.00;;;;;-143.90;100.00;75203.22;4995293;28;101646;-76
2023/11/12 09:14:15;;;;;;;;;23.25;22.00;;;;;-143.90;100.00;75209.44;4989726;28;103499;-74
2023/11/12 09:16:44;;;;;;;;;26.25;21.75;;;;;-143.90;100.00;75205.28;4999402;28;101478;-75
2023/11/12 09:19:11;;;;;;;;;22.50;20.75;;;;;-143.90;100.00;75197.03;4994012;28;102055;-76
2023/11/12 09:21:37;;;;;;;;;30.50;24.25;;;;;-143.90;100.00;75225.97;4975066;28;101923;-76
2023/11/12 09:24:05;;;;;;;;;20.75;17.50;;;;;-143.90;100.00;75211.50;4987181;28;103390;-74
2023/11/12 09:26:31;;;;;;;;;20.75;20.50;;;;;-143.90;100.00;75203.22;4986046;28;102570;-75
2023/11/12 09:28:58;;;;;;;;;31.50;28.75;;;;;-143.90;100.00;75230.09;4990679;28;101839;-75
2023/11/12 09:31:26;;;;;;;;;24.00;22.25;;;;;-143.90;100.00;75225.97;4996574;28;103836;-75
2023/11/12 09:33:52;;;;;;;;;38.00;33.00;;;;;-143.90;100.00;75234.25;4980064;28;104080;-77
2023/11/12 09:36:19;;;;;;;;;31.75;25.00;;;;;-143.90;100.00;75225.97;4971359;28;102391;-74
2023/11/12 09:38:47;;;;;;;;;31.25;22.00;;;;;-143.90;100.00;75201.16;4978637;28;102173;-75
2023/11/12 09:41:14;;;;;;;;;32.25;26.75;;;;;-143.90;100.00;75201.16;4975705;28;102310;-76
2023/11/12 09:43:41;;;;;;;;;28.50;22.00;;;;;-143.90;100.00;75209.44;4975920;28;104246;-76
2023/11/12 09:46:08;;;;;;;;;31.50;26.25;;;;;-143.90;100.00;75197.03;4983609;28;101951;-74
2023/11/12 09:48:39;;;;;;;;;33.75;30.00;;;;;-143.90;100.00;75205.28;4981817;28;102611;-76
2023/11/12 09:51:08;;;;;;;;;29.50;27.00;;;;;-143.90;100.00;75188.75;4983807;28;101947;-74
2023/11/12 09:53:45;;;;;;;;;23.50;20.25;;;;;-143.90;100.00;75159.81;4984786;28;104425;-75
2023/11/12 09:56:13;;;;;;;;;21.50;19.50;;;;;-143.90;100.00;75145.34;4978203;28;102228;-74
2023/11/12 09:58:48;;;;;;;;;24.75;23.25;;;;;-143.90;100.00;75147.41;4982923;28;102154;-73
2023/11/12 10:01:14;;;;;;;;;23.25;19.75;;;;;-143.90;100.00;75135.00;4977190;28;102102;-75
2023/11/12 10:03:48;;;;;;;;;36.25;30.75;;;;;-143.90;100.00;75155.69;4980190;28;104085;-75
2023/11/12 10:06:20;;;;;;;;;27.25;24.00;;;;;-143.90;100.00;75139.16;4987712;28;101897;-75
2023/11/12 10:08:49;;;;;;;;;26.25;22.75;;;;;-143.90;100.00;75132.94;4980646;28;102180;-74
2023/11/12 10:11:18;;;;;;;;;19.75;18.00;;;;;-143.90;100.00;75114.34;4981548;28;101976;-74
2023/11/12 10:13:46;;;;;;;;;13.25;13.00;;;;;-143.90;100.00;75085.38;4983603;28;105204;-73
2023/11/12 10:16:29;;;;;;;;;17.25;16.75;;;;;-143.90;100.00;75097.78;4980298;28;102990;-74
2023/11/12 10:19:06;;;;;;;;;18.75;15.75;;;;;-143.90;100.00;75083.31;4979861;28;103136;-74
2023/11/12 10:21:32;;;;;;;;;20.00;17.75;;;;;-143.90;100.00;75085.38;4989053;28;102175;-75
2023/11/12 10:24:04;;;;;;;;;19.00;17.25;;;;;-143.90;100.00;75077.13;4974545;28;104155;-75
2023/11/12 10:26:38;;;;;;;;;21.75;19.25;;;;;-143.90;100.00;75091.59;4958560;28;102401;-75
2023/11/12 10:29:07;;;;;;;;;21.50;18.00;;;;;-143.90;100.00;75106.06;4984857;28;102717;-75
2023/11/12 10:31:38;;;;;;;;;15.00;13.50;;;;;-143.90;100.00;75099.88;4969761;28;102031;-75
2023/11/12 10:34:05;;;;;;;;;16.25;14.00;;;;;-143.90;100.00;75087.47;4978729;28;105383;-76
2023/11/12 10:36:32;;;;;;;;;17.75;16.00;;;;;-143.90;100.00;75087.47;4978967;28;102198;-75
2023/11/12 10:39:05;;;;;;;;;16.75;16.25;;;;;-143.90;100.00;75081.25;4981953;28;102217;-74
2023/11/12 10:41:35;;;;;;;;;15.00;13.50;;;;;-143.90;100.00;75054.38;4978030;28;102288;-75
2023/11/12 10:44:02;;;;;;;;;14.00;13.00;;;;;-143.90;100.00;75048.19;4977820;28;104059;-74
2023/11/12 10:46:30;;;;;;;;;18.00;12.50;;;;;-143.90;100.00;75035.78;4975558;28;102215;-75
2023/11/12 10:48:57;;;;;;;;;14.00;14.00;;;;;-143.90;98.34;75033.72;4984749;28;102185;-75
2023/11/12 10:51:26;;;;;;;;;21.50;14.00;;;;;-143.90;96.95;75050.25;4968042;28;102225;-75